createdAt,value
2018-03-07T04:35:41.978Z,978.72
2018-03-07T04:36:41.868Z,978.70
2018-03-07T04:37:41.858Z,978.72
2018-03-07T04:38:41.840Z,978.74
2018-03-07T04:39:41.815Z,978.74
2018-03-07T04:40:41.825Z,978.74
2018-03-07T04:41:41.780Z,978.77
2018-03-07T04:42:41.835Z,978.74
2018-03-07T04:43:41.754Z,978.76
2018-03-07T04:44:41.738Z,978.73
2018-03-07T04:45:41.724Z,978.68
2018-03-07T04:46:41.704Z,978.69
2018-03-07T04:47:41.681Z,978.70
2018-03-07T04:48:41.697Z,978.70
2018-03-07T04:49:41.654Z,978.72
2018-03-07T04:50:41.630Z,978.67
2018-03-07T04:51:41.644Z,978.68
2018-03-07T04:52:41.593Z,978.72
2018-03-07T04:53:41.586Z,978.72
2018-03-07T04:54:41.572Z,978.73
2018-03-07T04:55:41.544Z,978.77
2018-03-07T04:56:41.523Z,978.77
2018-03-07T04:57:41.508Z,978.80
2018-03-07T04:58:41.497Z,978.75
2018-03-07T04:59:41.505Z,978.78
2018-03-07T05:00:41.460Z,978.75
2018-03-07T05:01:41.506Z,978.75
2018-03-07T05:02:41.511Z,978.75
2018-03-07T05:03:41.398Z,978.74
2018-03-07T05:04:41.385Z,978.77
2018-03-07T05:05:41.380Z,978.78
2018-03-07T05:06:41.415Z,978.76
2018-03-07T05:07:41.345Z,978.77
2018-03-07T05:08:41.317Z,978.81
2018-03-07T05:09:41.303Z,978.80
2018-03-07T05:10:41.282Z,978.76
2018-03-07T05:11:41.264Z,978.79
2018-03-07T05:12:41.264Z,978.75
2018-03-07T05:13:41.246Z,978.76
2018-03-07T05:14:41.226Z,978.76
2018-03-07T05:15:41.212Z,978.73
2018-03-07T05:16:41.190Z,978.77
2018-03-07T05:17:41.241Z,978.81
2018-03-07T05:18:41.147Z,978.74
2018-03-07T05:19:41.139Z,978.74
2018-03-07T05:20:41.111Z,978.80
2018-03-07T05:21:41.101Z,978.77
2018-03-07T05:22:41.082Z,978.78
2018-03-07T05:23:41.088Z,978.82
2018-03-07T05:24:41.045Z,978.81
2018-03-07T05:25:41.039Z,978.77
2018-03-07T05:26:41.019Z,978.79
2018-03-07T05:27:40.997Z,978.77
2018-03-07T05:28:41.038Z,978.84
2018-03-07T05:29:40.974Z,978.83
2018-03-07T05:30:40.947Z,978.83
2018-03-07T05:31:40.935Z,978.82
2018-03-07T05:32:40.907Z,978.81
2018-03-07T05:33:40.975Z,978.80
2018-03-07T05:34:41.016Z,978.84
2018-03-07T05:35:40.855Z,978.82
2018-03-07T05:36:40.847Z,978.85
2018-03-07T05:37:40.826Z,978.83
2018-03-07T05:38:40.816Z,978.84
2018-03-07T05:39:40.800Z,978.89
2018-03-07T05:40:40.810Z,978.85
2018-03-07T05:41:40.764Z,978.87
2018-03-07T05:42:40.746Z,978.89
2018-03-07T05:43:40.729Z,978.91
2018-03-07T05:44:40.701Z,978.89
2018-03-07T05:45:40.760Z,978.88
2018-03-07T05:46:40.676Z,978.88
2018-03-07T05:47:40.654Z,978.85
2018-03-07T05:48:40.643Z,978.85
2018-03-07T05:49:40.617Z,978.80
2018-03-07T05:50:40.610Z,978.79
2018-03-07T05:51:40.590Z,978.75
2018-03-07T05:52:40.569Z,978.73
2018-03-07T05:53:40.559Z,978.81
2018-03-07T05:54:40.530Z,978.78
2018-03-07T05:55:40.526Z,978.85
2018-03-07T05:56:40.500Z,978.84
2018-03-07T05:57:40.484Z,978.88
2018-03-07T05:58:40.466Z,978.91
2018-03-07T05:59:40.452Z,978.91
2018-03-07T06:00:40.438Z,978.91
2018-03-07T06:01:40.488Z,978.94
2018-03-07T06:02:40.409Z,978.95
2018-03-07T06:03:40.389Z,978.97
2018-03-07T06:04:40.362Z,979.00
2018-03-07T06:05:40.346Z,979.00
2018-03-07T06:06:40.330Z,979.01
2018-03-07T06:07:40.344Z,979.01
2018-03-07T06:08:40.299Z,979.04
2018-03-07T06:09:40.308Z,979.06
2018-03-07T06:10:40.273Z,979.06
2018-03-07T06:11:40.251Z,979.09
2018-03-07T06:12:40.257Z,979.09
2018-03-07T06:13:40.214Z,979.08
2018-03-07T06:14:40.195Z,979.08
2018-03-07T06:15:40.181Z,979.08
2018-03-07T06:16:40.205Z,979.10
2018-03-07T06:17:40.153Z,979.13
2018-03-07T06:18:40.121Z,979.14
2018-03-07T06:19:40.145Z,979.11
2018-03-07T06:20:40.098Z,979.20
2018-03-07T06:21:40.074Z,979.17
2018-03-07T06:22:40.065Z,979.19
2018-03-07T06:23:40.046Z,979.24
2018-03-07T06:24:40.058Z,979.20
2018-03-07T06:25:40.014Z,979.25
2018-03-07T06:26:39.987Z,979.27
2018-03-07T06:27:39.983Z,979.28
2018-03-07T06:28:39.959Z,979.32
2018-03-07T06:29:39.989Z,979.32
2018-03-07T06:30:39.931Z,979.36
2018-03-07T06:31:39.923Z,979.40
2018-03-07T06:32:39.888Z,979.39
2018-03-07T06:33:39.883Z,979.43
2018-03-07T06:34:39.907Z,979.45
2018-03-07T06:35:39.845Z,979.41
2018-03-07T06:36:39.860Z,979.43
2018-03-07T06:37:39.811Z,979.43
2018-03-07T06:38:39.794Z,979.43
2018-03-07T06:39:39.784Z,979.45
2018-03-07T06:40:39.765Z,979.47
2018-03-07T06:41:39.805Z,979.48
2018-03-07T06:42:39.730Z,979.51
2018-03-07T06:43:39.718Z,979.56
2018-03-07T06:44:39.681Z,979.55
2018-03-07T06:45:39.673Z,979.59
2018-03-07T06:46:39.650Z,979.59
2018-03-07T06:47:39.673Z,979.58
2018-03-07T06:48:39.636Z,979.60
2018-03-07T06:49:39.603Z,979.59
2018-03-07T06:50:39.596Z,979.61
2018-03-07T06:51:39.579Z,979.64
2018-03-07T06:52:39.622Z,979.64
2018-03-07T06:53:39.542Z,979.68
2018-03-07T06:54:39.536Z,979.71
2018-03-07T06:55:39.505Z,979.78
2018-03-07T06:56:39.494Z,979.77
2018-03-07T06:57:39.470Z,979.81
2018-03-07T06:58:39.515Z,979.79
2018-03-07T06:59:39.446Z,979.77
2018-03-07T07:00:39.432Z,979.77
2018-03-07T07:01:39.404Z,979.78
2018-03-07T07:02:39.392Z,979.80
2018-03-07T07:03:39.410Z,979.78
2018-03-07T07:04:39.359Z,979.78
2018-03-07T07:05:39.336Z,979.73
2018-03-07T07:06:39.325Z,979.76
2018-03-07T07:07:39.311Z,979.74
2018-03-07T07:08:39.315Z,979.72
2018-03-07T07:09:39.280Z,979.80
2018-03-07T07:10:39.260Z,979.83
2018-03-07T07:11:39.251Z,979.79
2018-03-07T07:12:39.216Z,979.80
2018-03-07T07:13:39.236Z,979.81
2018-03-07T07:14:39.205Z,979.82
2018-03-07T07:15:39.169Z,979.83
2018-03-07T07:16:39.163Z,979.81
2018-03-07T07:17:39.142Z,979.85
2018-03-07T07:18:39.162Z,979.84
2018-03-07T07:19:39.135Z,979.84
2018-03-07T07:20:39.087Z,979.84
2018-03-07T07:21:39.117Z,979.82
2018-03-07T07:22:39.063Z,979.85
2018-03-07T07:23:39.070Z,979.88
2018-03-07T07:24:39.025Z,979.86
2018-03-07T07:25:39.013Z,979.95
2018-03-07T07:26:39.000Z,979.93
2018-03-07T07:27:38.981Z,979.97
2018-03-07T07:28:39.024Z,979.99
2018-03-07T07:29:38.951Z,979.99
2018-03-07T07:30:38.925Z,980.03
2018-03-07T07:31:38.904Z,980.03
2018-03-07T07:32:38.907Z,980.05
2018-03-07T07:33:38.882Z,980.04
2018-03-07T07:34:38.909Z,980.08
2018-03-07T07:35:38.844Z,980.09
2018-03-07T07:36:38.835Z,980.09
2018-03-07T07:37:38.813Z,980.13
2018-03-07T07:38:38.797Z,980.13
2018-03-07T07:39:38.819Z,980.13
2018-03-07T07:40:38.822Z,980.10
2018-03-07T07:41:38.744Z,980.12
2018-03-07T07:42:38.732Z,980.09
2018-03-07T07:43:38.717Z,980.13
2018-03-07T07:44:38.705Z,980.14
2018-03-07T07:45:38.688Z,980.10
2018-03-07T07:46:38.701Z,980.13
2018-03-07T07:47:38.653Z,980.15
2018-03-07T07:48:38.633Z,980.16
2018-03-07T07:49:38.625Z,980.17
2018-03-07T07:50:39.478Z,980.19
2018-03-07T07:51:38.583Z,980.19
2018-03-07T07:52:38.571Z,980.20
2018-03-07T07:53:38.556Z,980.23
2018-03-07T07:54:38.564Z,980.21
2018-03-07T07:55:39.532Z,980.25
2018-03-07T08:12:55.435Z,980.33
2018-03-07T08:13:55.409Z,980.34
2018-03-07T08:14:55.391Z,980.31
2018-03-07T08:15:55.360Z,980.27
2018-03-07T08:16:55.531Z,980.27
2018-03-07T08:17:55.384Z,980.28
2018-03-07T08:18:55.430Z,980.25
2018-03-07T08:19:55.600Z,980.25
2018-03-07T08:20:55.315Z,980.27
2018-03-07T08:21:55.322Z,980.29
2018-03-07T08:22:55.278Z,980.26
2018-03-07T08:23:55.220Z,980.29
2018-03-07T08:24:55.268Z,980.29
2018-03-07T08:25:55.195Z,980.31
2018-03-07T08:26:55.175Z,980.33
2018-03-07T08:27:55.163Z,980.36
2018-03-07T08:28:55.138Z,980.40
2018-03-07T08:29:55.126Z,980.41
2018-03-07T08:30:55.169Z,980.42
2018-03-07T08:31:55.092Z,980.43
2018-03-07T08:32:55.064Z,980.45
2018-03-07T08:33:55.068Z,980.45
2018-03-07T08:34:55.034Z,980.47
2018-03-07T08:35:55.572Z,980.49
2018-03-07T08:36:55.615Z,980.50
2018-03-07T08:37:54.996Z,980.50
2018-03-07T08:38:55.160Z,980.55
2018-03-07T08:39:55.014Z,980.57
2018-03-07T08:40:54.944Z,980.59
2018-03-07T08:41:54.919Z,980.64
2018-03-07T08:42:54.908Z,980.64
2018-03-07T08:43:54.884Z,980.63
2018-03-07T08:44:54.874Z,980.63
2018-03-07T08:45:54.910Z,980.69
2018-03-07T08:46:54.843Z,980.66
2018-03-07T08:47:54.825Z,980.69
2018-03-07T08:48:54.804Z,980.74
2018-03-07T08:49:54.790Z,980.74
2018-03-07T08:50:54.777Z,980.74
2018-03-07T08:51:55.019Z,980.71
2018-03-07T08:52:54.880Z,980.69
2018-03-07T08:53:54.755Z,980.71
2018-03-07T08:54:54.699Z,980.72
2018-03-07T08:55:54.688Z,980.72
2018-03-07T08:56:54.906Z,980.73
2018-03-07T08:57:54.653Z,980.71
2018-03-07T08:58:54.686Z,980.73
2018-03-07T08:59:54.748Z,980.77
2018-03-07T09:00:54.601Z,980.79
2018-03-07T09:01:54.590Z,980.82
2018-03-07T09:02:54.611Z,980.79
2018-03-07T09:03:54.548Z,980.78
2018-03-07T09:04:54.536Z,980.78
2018-03-07T09:05:54.514Z,980.78
2018-03-07T09:06:54.505Z,980.79
2018-03-07T09:07:54.512Z,980.77
2018-03-07T09:08:54.472Z,980.81
2018-03-07T09:09:54.457Z,980.84
2018-03-07T09:10:54.436Z,980.82
2018-03-07T09:11:54.415Z,980.80
2018-03-07T09:12:54.406Z,980.83
2018-03-07T09:13:54.423Z,980.81
2018-03-07T09:14:54.377Z,980.81
2018-03-07T09:15:54.349Z,980.79
2018-03-07T09:16:54.335Z,980.80
2018-03-07T09:17:54.320Z,980.76
2018-03-07T09:18:54.305Z,980.80
2018-03-07T09:19:54.342Z,980.74
2018-03-07T09:20:54.272Z,980.74
2018-03-07T09:21:54.245Z,980.75
2018-03-07T09:22:54.234Z,980.78
2018-03-07T09:23:54.227Z,980.79
2018-03-07T09:24:54.199Z,980.76
2018-03-07T09:25:54.188Z,980.77
2018-03-07T09:26:54.243Z,980.78
2018-03-07T09:27:54.912Z,980.81
2018-03-07T09:28:54.157Z,980.81
2018-03-07T09:29:54.124Z,980.80
2018-03-07T09:30:54.804Z,980.89
2018-03-07T09:31:54.080Z,980.85
2018-03-07T09:32:54.100Z,980.85
2018-03-07T09:33:54.056Z,980.85
2018-03-07T09:34:54.034Z,980.87
2018-03-07T09:35:54.023Z,980.89
2018-03-07T09:36:54.077Z,980.90
2018-03-07T09:37:53.998Z,980.91
2018-03-07T09:38:53.978Z,980.89
2018-03-07T09:39:54.020Z,980.92
2018-03-07T09:40:54.103Z,980.90
2018-03-07T09:41:53.929Z,980.95
2018-03-07T09:42:54.341Z,980.96
2018-03-07T09:43:53.997Z,981.00
2018-03-07T09:44:53.886Z,980.96
2018-03-07T09:45:53.867Z,980.97
2018-03-07T09:46:53.857Z,980.96
2018-03-07T09:47:53.838Z,980.92
2018-03-07T09:48:53.834Z,980.90
2018-03-07T09:49:53.810Z,980.92
2018-03-07T09:50:53.823Z,980.92
2018-03-07T09:51:53.797Z,980.94
2018-03-07T09:52:53.824Z,980.96
2018-03-07T09:53:53.747Z,980.99
2018-03-07T09:54:53.744Z,981.02
2018-03-07T09:55:53.713Z,980.97
2018-03-07T09:56:53.704Z,981.03
2018-03-07T09:57:53.681Z,981.03
2018-03-07T09:58:53.671Z,981.01
2018-03-07T09:59:53.663Z,981.03
2018-03-07T10:00:53.633Z,981.00
2018-03-07T10:01:53.628Z,981.02
2018-03-07T10:02:53.625Z,981.00
2018-03-07T10:03:53.624Z,980.99
2018-03-07T10:04:53.585Z,981.02
2018-03-07T10:05:53.559Z,981.01
2018-03-07T10:06:53.554Z,981.04
2018-03-07T10:07:53.550Z,981.03
2018-03-07T10:08:53.587Z,980.97
2018-03-07T10:09:53.519Z,980.99
2018-03-07T10:10:53.498Z,980.98
2018-03-07T10:11:53.673Z,980.98
2018-03-07T10:12:53.477Z,980.98
2018-03-07T10:13:53.470Z,980.97
2018-03-07T10:14:53.459Z,980.96
2018-03-07T10:15:53.457Z,980.95
2018-03-07T10:16:53.409Z,980.93
2018-03-07T10:17:53.422Z,980.91
2018-03-07T10:18:54.508Z,980.96
2018-03-07T10:25:37.932Z,980.99
2018-03-07T10:26:37.884Z,980.96
2018-03-07T10:27:37.818Z,980.98
2018-03-07T10:28:37.848Z,980.99
2018-03-07T10:29:37.799Z,980.97
2018-03-07T10:30:37.789Z,980.99
2018-03-07T10:31:37.802Z,980.96
2018-03-07T10:32:37.756Z,980.92
2018-03-07T10:33:37.777Z,980.93
2018-03-07T10:34:37.718Z,980.94
2018-03-07T10:35:37.707Z,980.97
2018-03-07T10:36:37.716Z,980.97
2018-03-07T10:37:37.681Z,980.99
2018-03-07T10:38:37.713Z,980.99
2018-03-07T10:39:37.698Z,981.00
2018-03-07T10:40:37.636Z,981.04
2018-03-07T10:41:37.672Z,981.10
2018-03-07T10:42:37.600Z,981.09
2018-03-07T10:43:37.870Z,981.09
2018-03-07T10:44:37.583Z,981.08
2018-03-07T10:45:37.554Z,981.10
2018-03-07T10:46:37.550Z,981.08
2018-03-07T10:47:37.554Z,981.11
2018-03-07T10:48:37.561Z,981.07
2018-03-07T10:49:37.530Z,981.03
2018-03-07T10:50:37.490Z,981.05
2018-03-07T10:51:37.475Z,981.04
2018-03-07T10:52:37.465Z,981.05
2018-03-07T10:53:37.531Z,981.05
2018-03-07T10:54:37.434Z,981.07
2018-03-07T10:55:37.429Z,981.09
2018-03-07T10:56:37.406Z,981.14
2018-03-07T10:57:37.387Z,981.09
2018-03-07T10:58:37.374Z,981.08
2018-03-07T10:59:37.426Z,981.13
2018-03-07T11:00:37.354Z,981.15
2018-03-07T11:01:37.361Z,981.13
2018-03-07T11:02:37.320Z,981.13
2018-03-07T11:03:37.314Z,981.13
2018-03-07T11:04:37.327Z,981.22
2018-03-07T11:05:37.287Z,981.25
2018-03-07T11:06:37.268Z,981.27
2018-03-07T11:07:37.269Z,981.25
2018-03-07T11:08:37.286Z,981.39
2018-03-07T11:09:37.239Z,981.36
2018-03-07T11:10:37.222Z,981.31
2018-03-07T11:11:37.254Z,981.35
2018-03-07T11:12:37.207Z,981.34
2018-03-07T11:13:37.252Z,981.32
2018-03-07T11:14:37.184Z,981.33
2018-03-07T11:15:37.222Z,981.29
2018-03-07T11:16:37.163Z,981.30
2018-03-07T11:17:37.142Z,981.32
2018-03-07T11:18:37.134Z,981.34
2018-03-07T11:19:37.119Z,981.36
2018-03-07T11:20:37.118Z,981.31
2018-03-07T11:21:37.153Z,981.29
2018-03-07T11:22:37.105Z,981.24
2018-03-07T11:23:37.084Z,981.30
2018-03-07T11:24:37.115Z,981.38
2018-03-07T11:25:37.068Z,981.36
2018-03-07T11:26:37.063Z,981.43
2018-03-07T11:27:37.086Z,981.41
2018-03-07T11:28:37.042Z,981.38
2018-03-07T11:29:37.029Z,981.30
2018-03-07T11:30:37.042Z,981.28
2018-03-07T11:31:37.016Z,981.26
2018-03-07T11:32:37.043Z,981.27
2018-03-07T11:33:37.008Z,981.20
2018-03-07T11:34:36.997Z,981.26
2018-03-07T11:35:36.995Z,981.34
2018-03-07T11:36:36.976Z,981.39
2018-03-07T11:37:36.998Z,981.37
2018-03-07T11:38:37.004Z,981.31
2018-03-07T11:39:36.959Z,981.29
2018-03-07T11:40:36.955Z,981.22
2018-03-07T11:41:36.937Z,981.25
2018-03-07T11:42:36.938Z,981.31
2018-03-07T11:43:36.962Z,981.34
2018-03-07T11:44:36.953Z,981.30
2018-03-07T11:45:36.912Z,981.35
2018-03-07T11:46:36.910Z,981.40
2018-03-07T11:47:36.898Z,981.40
2018-03-07T11:48:36.910Z,981.46
2018-03-07T11:49:36.906Z,981.47
2018-03-07T11:50:36.874Z,981.51
2018-03-07T11:51:36.872Z,981.53
2018-03-07T11:52:36.861Z,981.57
2018-03-07T11:53:36.864Z,981.57
2018-03-07T11:54:36.885Z,981.53
2018-03-07T11:55:36.878Z,981.59
2018-03-07T11:56:36.905Z,981.69
2018-03-07T11:57:36.869Z,981.61
2018-03-07T11:58:36.827Z,981.56
2018-03-07T11:59:36.816Z,981.52
2018-03-07T12:00:37.514Z,981.52
2018-03-07T12:01:43.920Z,981.56
2018-03-07T12:02:38.962Z,981.59
2018-03-07T12:03:36.807Z,981.63
2018-03-07T12:04:36.792Z,981.65
2018-03-07T12:05:36.785Z,981.44
2018-03-07T12:06:36.792Z,981.60
2018-03-07T12:07:36.823Z,981.59
2018-03-07T12:08:36.766Z,981.64
2018-03-07T12:09:36.770Z,981.54
2018-03-07T12:10:36.765Z,981.56
2018-03-07T12:11:36.763Z,981.59
2018-03-07T12:12:36.760Z,981.52
2018-03-07T12:13:36.769Z,981.46
2018-03-07T12:14:36.744Z,981.47
2018-03-07T12:15:36.732Z,981.42
2018-03-07T12:16:36.732Z,981.50
2018-03-07T12:17:36.808Z,981.49
2018-03-07T12:18:36.719Z,981.46
2018-03-07T12:19:36.761Z,981.46
2018-03-07T12:20:36.774Z,981.42
2018-03-07T12:21:36.704Z,981.36
2018-03-07T12:22:36.713Z,981.35
2018-03-07T12:23:36.706Z,981.39
2018-03-07T12:24:36.698Z,981.38
2018-03-07T12:25:36.694Z,981.41
2018-03-07T12:26:36.698Z,981.40
2018-03-07T12:27:36.690Z,981.42
2018-03-07T12:28:36.664Z,981.43
2018-03-07T12:29:36.696Z,981.41
2018-03-07T12:30:36.665Z,981.47
2018-03-07T12:31:36.696Z,981.47
2018-03-07T12:32:36.655Z,981.45
2018-03-07T12:33:36.644Z,981.46
2018-03-07T12:34:36.639Z,981.46
2018-03-07T12:35:36.639Z,981.44
2018-03-07T12:36:36.635Z,981.42
2018-03-07T12:37:36.633Z,981.41
2018-03-07T12:38:36.673Z,981.44
2018-03-07T12:39:36.620Z,981.47
2018-03-07T12:40:36.620Z,981.46
2018-03-07T12:41:36.596Z,981.46
2018-03-07T12:42:36.607Z,981.41
2018-03-07T12:43:36.628Z,981.35
2018-03-07T12:44:36.650Z,981.36
2018-03-07T12:45:36.618Z,981.42
2018-03-07T12:46:36.582Z,981.45
2018-03-07T12:47:36.578Z,981.49
2018-03-07T12:48:37.187Z,981.47
2018-03-07T12:49:37.072Z,981.41
2018-03-07T12:50:36.580Z,981.45
2018-03-07T12:51:36.550Z,981.45
2018-03-07T12:52:36.559Z,981.43
2018-03-07T12:53:36.551Z,981.40
2018-03-07T12:54:36.540Z,981.42
2018-03-07T12:55:36.585Z,981.49
2018-03-07T12:56:36.531Z,981.47
2018-03-07T12:57:36.527Z,981.46
2018-03-07T12:58:36.530Z,981.43
2018-03-07T12:59:36.524Z,981.46
2018-03-07T13:00:36.512Z,981.44
2018-03-07T13:01:36.520Z,981.44
2018-03-07T13:02:36.502Z,981.41
2018-03-07T13:03:36.500Z,981.39
2018-03-07T13:04:36.499Z,981.44
2018-03-07T13:05:36.492Z,981.42
2018-03-07T13:06:36.520Z,981.50
2018-03-07T13:07:36.487Z,981.54
2018-03-07T13:08:36.487Z,981.56
2018-03-07T13:09:36.482Z,981.56
2018-03-07T13:10:36.483Z,981.56
2018-03-07T13:11:36.501Z,981.54
2018-03-07T13:12:36.532Z,981.54
2018-03-07T13:13:36.474Z,981.51
2018-03-07T13:14:36.464Z,981.49
2018-03-07T13:15:36.468Z,981.44
2018-03-07T13:16:36.452Z,981.37
2018-03-07T13:17:36.446Z,981.31
2018-03-07T13:18:36.470Z,981.32
2018-03-07T13:19:36.516Z,981.41
2018-03-07T13:20:36.452Z,981.41
2018-03-07T13:21:36.448Z,981.44
2018-03-07T13:22:36.444Z,981.39
2018-03-07T13:23:36.443Z,981.35
2018-03-07T13:24:36.437Z,981.32
2018-03-07T13:25:36.462Z,981.34
2018-03-07T13:26:36.445Z,981.39
2018-03-07T13:27:36.473Z,981.44
2018-03-07T13:28:36.420Z,981.40
2018-03-07T13:29:36.418Z,981.42
2018-03-07T13:30:36.460Z,981.47
2018-03-07T13:31:36.421Z,981.44
2018-03-07T13:32:36.416Z,981.46
2018-03-07T13:33:36.410Z,981.45
2018-03-07T13:34:36.460Z,981.49
2018-03-07T13:35:36.407Z,981.45
2018-03-07T13:36:36.396Z,981.48
2018-03-07T13:37:36.401Z,981.35
2018-03-07T13:38:36.392Z,981.42
2018-03-07T13:39:36.388Z,981.44
2018-03-07T13:40:36.430Z,981.38
2018-03-07T13:41:36.393Z,981.29
2018-03-07T13:42:36.397Z,981.27
2018-03-07T13:43:36.381Z,981.36
2018-03-07T13:44:36.506Z,981.45
2018-03-07T13:45:36.380Z,981.56
2018-03-07T13:46:36.372Z,981.52
2018-03-07T13:47:36.368Z,981.48
2018-03-07T13:48:36.371Z,981.45
2018-03-07T13:49:36.375Z,981.39
2018-03-07T13:50:36.400Z,981.35
2018-03-07T13:51:36.359Z,981.45
2018-03-07T13:52:36.356Z,981.47
2018-03-07T13:53:36.354Z,981.57
2018-03-07T13:54:36.372Z,981.55
2018-03-07T13:55:36.348Z,981.52
2018-03-07T13:56:36.387Z,981.57
2018-03-07T13:57:36.329Z,981.60
2018-03-07T13:58:36.344Z,981.52
2018-03-07T13:59:36.338Z,981.46
2018-03-07T14:00:36.361Z,981.44
2018-03-07T14:01:36.321Z,981.43
2018-03-07T14:02:36.323Z,981.41
2018-03-07T14:03:36.372Z,981.42
2018-03-07T14:04:36.315Z,981.45
2018-03-07T14:05:36.304Z,981.53
2018-03-07T14:06:36.308Z,981.60
2018-03-07T14:07:36.378Z,981.55
2018-03-07T14:08:36.356Z,981.50
2018-03-07T14:09:37.148Z,981.46
2018-03-07T14:10:36.288Z,981.40
2018-03-07T14:11:36.288Z,981.49
2018-03-07T14:12:36.328Z,981.50
2018-03-07T14:13:36.356Z,981.53
2018-03-07T14:14:36.273Z,981.50
2018-03-07T14:15:36.271Z,981.46
2018-03-07T14:16:36.279Z,981.47
2018-03-07T14:17:36.271Z,981.53
2018-03-07T14:18:36.263Z,981.52
2018-03-07T14:19:36.337Z,981.58
2018-03-07T14:20:36.258Z,981.61
2018-03-07T14:21:36.256Z,981.59
2018-03-07T14:22:36.298Z,981.58
2018-03-07T14:23:36.241Z,981.60
2018-03-07T14:24:36.247Z,981.62
2018-03-07T14:25:36.283Z,981.62
2018-03-07T14:26:36.266Z,981.59
2018-03-07T14:27:36.234Z,981.58
2018-03-07T14:28:36.222Z,981.61
2018-03-07T14:29:36.222Z,981.62
2018-03-07T14:30:36.910Z,981.55
2018-03-07T14:31:36.919Z,981.57
2018-03-07T14:32:36.798Z,981.52
2018-03-07T14:33:36.267Z,981.56
2018-03-07T14:34:36.200Z,981.53
2018-03-07T14:35:36.197Z,981.50
2018-03-07T14:36:36.199Z,981.54
2018-03-07T14:37:36.184Z,981.56
2018-03-07T14:38:36.190Z,981.51
2018-03-07T14:39:36.246Z,981.48
2018-03-07T14:40:36.182Z,981.45
2018-03-07T14:41:36.173Z,981.48
2018-03-07T14:42:36.209Z,981.45
2018-03-07T14:43:36.170Z,981.45
2018-03-07T14:44:36.161Z,981.43
2018-03-07T14:45:36.164Z,981.51
2018-03-07T14:46:36.194Z,981.50
2018-03-07T14:47:36.166Z,981.56
2018-03-07T14:48:36.154Z,981.51
2018-03-07T14:49:36.191Z,981.48
2018-03-07T14:50:36.163Z,981.44
2018-03-07T14:51:36.136Z,981.44
2018-03-07T14:52:36.123Z,981.40
2018-03-07T14:53:36.119Z,981.44
2018-03-07T14:54:36.139Z,981.40
2018-03-07T14:55:36.163Z,981.41
2018-03-07T14:56:36.103Z,981.43
2018-03-07T14:57:36.140Z,981.36
2018-03-07T14:58:36.081Z,981.39
2018-03-07T14:59:36.081Z,981.34
2018-03-07T15:00:36.135Z,981.35
2018-03-07T15:01:36.107Z,981.32
2018-03-07T15:02:36.129Z,981.34
2018-03-07T15:03:36.752Z,981.31
2018-03-07T15:04:36.036Z,981.28
2018-03-07T15:05:36.044Z,981.24
2018-03-07T15:06:36.043Z,981.24
2018-03-07T15:07:36.021Z,981.26
2018-03-07T15:08:36.056Z,981.27
2018-03-07T15:09:36.003Z,981.27
2018-03-07T15:10:36.048Z,981.29
2018-03-07T15:11:35.994Z,981.26
2018-03-07T15:12:35.987Z,981.30
2018-03-07T15:13:36.047Z,981.24
2018-03-07T15:14:36.010Z,981.29
2018-03-07T15:15:35.954Z,981.33
2018-03-07T15:16:35.939Z,981.33
2018-03-07T15:17:35.926Z,981.31
2018-03-07T15:18:35.931Z,981.37
2018-03-07T15:19:35.917Z,981.36
2018-03-07T15:20:35.911Z,981.33
2018-03-07T15:21:35.896Z,981.36
2018-03-07T15:22:35.891Z,981.33
2018-03-07T15:23:35.884Z,981.32
2018-03-07T15:24:35.928Z,981.37
2018-03-07T15:25:35.883Z,981.35
2018-03-07T15:26:35.849Z,981.35
2018-03-07T15:27:35.877Z,981.35
2018-03-07T15:28:35.823Z,981.37
2018-03-07T15:29:35.884Z,981.39
2018-03-07T15:30:35.801Z,981.35
2018-03-07T15:31:35.800Z,981.36
2018-03-07T15:32:35.796Z,981.34
2018-03-07T15:33:35.777Z,981.37
2018-03-07T15:34:35.771Z,981.37
2018-03-07T15:35:35.782Z,981.35
2018-03-07T15:36:35.745Z,981.34
2018-03-07T15:37:35.734Z,981.33
2018-03-07T15:38:35.765Z,981.33
2018-03-07T15:39:35.714Z,981.39
2018-03-07T15:40:35.735Z,981.38
2018-03-07T15:41:35.694Z,981.35
2018-03-07T15:42:35.678Z,981.36
2018-03-07T15:43:35.667Z,981.39
2018-03-07T15:44:35.677Z,981.39
2018-03-07T15:45:35.645Z,981.37
2018-03-07T15:46:35.695Z,981.38
2018-03-07T15:47:35.636Z,981.38
2018-03-07T15:48:35.613Z,981.41
2018-03-07T15:49:35.608Z,981.39
2018-03-07T15:50:35.589Z,981.41
2018-03-07T15:51:35.576Z,981.41
2018-03-07T15:52:35.635Z,981.41
2018-03-07T15:53:35.553Z,981.40
2018-03-07T15:54:35.555Z,981.40
2018-03-07T15:55:35.533Z,981.44
2018-03-07T15:56:35.514Z,981.43
2018-03-07T15:57:35.522Z,981.41
2018-03-07T15:58:35.550Z,981.40
2018-03-07T15:59:35.489Z,981.39
2018-03-07T16:00:35.477Z,981.42
2018-03-07T16:01:35.471Z,981.42
2018-03-07T16:02:35.449Z,981.45
2018-03-07T16:03:35.438Z,981.48
2018-03-07T16:04:35.444Z,981.45
2018-03-07T16:05:35.419Z,981.46
2018-03-07T16:06:35.415Z,981.45
2018-03-07T16:07:35.394Z,981.44
2018-03-07T16:08:35.382Z,981.45
2018-03-07T16:09:35.425Z,981.46
2018-03-07T16:10:35.362Z,981.49
2018-03-07T16:11:35.355Z,981.50
2018-03-07T16:12:35.335Z,981.54
2018-03-07T16:13:35.328Z,981.56
2018-03-07T16:14:35.466Z,981.57
2018-03-07T16:15:35.360Z,981.58
2018-03-07T16:16:35.279Z,981.57
2018-03-07T16:17:35.283Z,981.62
2018-03-07T16:18:35.274Z,981.63
2018-03-07T16:19:35.245Z,981.64
2018-03-07T16:20:35.237Z,981.66
2018-03-07T16:21:35.233Z,981.67
2018-03-07T16:22:35.213Z,981.68
2018-03-07T16:23:35.200Z,981.66
2018-03-07T16:24:35.194Z,981.70
2018-03-07T16:25:35.171Z,981.76
2018-03-07T16:26:35.192Z,981.76
2018-03-07T16:27:35.220Z,981.80
2018-03-07T16:28:35.142Z,981.82
2018-03-07T16:29:35.125Z,981.84
2018-03-07T16:30:35.117Z,981.80
2018-03-07T16:31:35.095Z,981.85
2018-03-07T16:32:35.092Z,981.82
2018-03-07T16:33:35.091Z,981.87
2018-03-07T16:34:35.060Z,981.85
2018-03-07T16:35:35.110Z,981.95
2018-03-07T16:36:35.041Z,981.93
2018-03-07T16:37:35.032Z,981.95
2018-03-07T16:38:35.011Z,981.96
2018-03-07T16:39:34.997Z,981.95
2018-03-07T16:40:34.998Z,982.01
2018-03-07T16:41:34.987Z,981.98
2018-03-07T16:42:34.966Z,982.00
2018-03-07T16:43:34.947Z,981.98
2018-03-07T16:44:34.946Z,981.99
2018-03-07T16:45:34.918Z,982.01
2018-03-07T16:46:34.971Z,982.03
2018-03-07T16:47:34.908Z,982.01
2018-03-07T16:48:34.881Z,981.98
2018-03-07T16:49:34.865Z,981.96
2018-03-07T16:50:34.863Z,982.07
2018-03-07T16:51:34.849Z,982.06
2018-03-07T16:52:34.889Z,982.12
2018-03-07T16:53:34.817Z,982.10
2018-03-07T16:54:34.813Z,982.14
2018-03-07T16:55:34.799Z,982.13
2018-03-07T16:56:34.784Z,982.14
2018-03-07T16:57:34.774Z,982.07
2018-03-07T16:58:34.766Z,982.07
2018-03-07T16:59:34.805Z,982.12
2018-03-07T17:00:34.726Z,982.12
2018-03-07T17:01:34.723Z,982.08
2018-03-07T17:02:34.710Z,982.04
2018-03-07T17:03:34.686Z,982.02
2018-03-07T17:04:34.680Z,982.07
2018-03-07T17:05:34.670Z,982.02
2018-03-07T17:06:34.654Z,982.03
2018-03-07T17:07:34.634Z,982.03
2018-03-07T17:08:34.633Z,982.06
2018-03-07T17:09:34.645Z,982.06
2018-03-07T17:10:34.597Z,982.04
2018-03-07T17:11:34.674Z,982.06
2018-03-07T17:12:34.574Z,982.04
2018-03-07T17:13:34.622Z,982.03
2018-03-07T17:14:34.535Z,982.06
2018-03-07T17:15:34.535Z,982.09
2018-03-07T17:16:34.509Z,982.07
2018-03-07T17:17:34.508Z,982.08
2018-03-07T17:18:34.479Z,982.10
2018-03-07T17:19:34.509Z,982.13
2018-03-07T17:20:34.457Z,982.17
2018-03-07T17:21:34.448Z,982.15
2018-03-07T17:22:34.444Z,982.18
2018-03-07T17:23:34.413Z,982.18
2018-03-07T17:24:34.404Z,982.18
2018-03-07T17:25:34.389Z,982.16